Time;durP1;ratioP1;P1;durP2;ratioP2;P2;SDS_P1;SDS_P2;PMS_P1;PMS_P2;Temp;Humidity;BMP_temperature;BMP_pressure;BME280_temperature;BME280_humidity;BME280_pressure;Samples;Min_cycle;Max_cycle;Signal;HPM_P1;HPM_P2
2022/06/05 00:01:52;;;;;;;;;;;;;;;17.41;91.17;97365.73;109800;1253;71556;-71
2022/06/05 00:04:34;;;;;;;;;;;;;;;17.43;91.43;97372.69;110132;1251;68600;-72
2022/06/05 00:07:06;;;;;;;;;;;;;;;17.45;88.69;97377.65;109808;1251;69435;-71
2022/06/05 00:09:54;;;;;;;;;;;;;;;17.45;87.70;97382.23;109792;1251;59696;-71
2022/06/05 00:12:33;;;;;;;;;;;;;;;17.45;91.80;97386.56;109774;1251;59710;-70
2022/06/05 00:15:02;;;;;;;;;;;;;;;17.46;91.38;97382.60;109775;1252;71539;-72
2022/06/05 00:17:31;;;;;;;;;;;;;;;17.48;91.06;97379.44;109726;1253;67625;-71
2022/06/05 00:20:00;;;;;;;;;;;;;;;17.48;90.99;97392.15;109748;1251;69310;-72
2022/06/05 00:22:30;;;;;;;;;;;;;;;17.45;90.99;97395.05;109674;1252;59773;-71
2022/06/05 00:24:59;;;;;;;;;;;;;;;17.41;91.23;97398.98;109709;1251;59707;-72
2022/06/05 00:27:46;;;;;;;;;;;;;;;17.37;90.52;97398.27;109765;1251;71376;-73
2022/06/05 00:30:26;;;;;;;;;;;;;;;17.36;90.80;97398.98;109807;1251;67785;-71
2022/06/05 00:33:15;;;;;;;;;;;;;;;17.37;91.47;97396.08;109870;1252;69266;-71
2022/06/05 00:35:48;;;;;;;;;;;;;;;17.44;90.53;97392.34;109800;1252;59757;-70
2022/06/05 00:38:25;;;;;;;;;;;;;;;17.55;89.40;97392.08;109928;1250;59669;-72
2022/06/05 00:40:54;;;;;;;;;;;;;;;17.68;90.07;97400.82;109830;1250;70760;-70
2022/06/05 00:43:24;;;;;;;;;;;;;;;17.80;89.75;97403.46;109909;1250;67887;-71
2022/06/05 00:45:55;;;;;;;;;;;;;;;17.92;88.86;97401.21;109851;1250;69675;-70
2022/06/05 00:48:25;;;;;;;;;;;;;;;18.03;88.90;97398.33;109890;1250;59708;-73
2022/06/05 00:50:55;;;;;;;;;;;;;;;18.14;89.10;97401.77;109948;1250;59745;-70
2022/06/05 00:53:24;;;;;;;;;;;;;;;18.23;88.64;97407.20;109928;1250;70785;-71
2022/06/05 00:55:53;;;;;;;;;;;;;;;18.30;89.02;97404.84;109764;1250;68485;-72
2022/06/05 00:58:23;;;;;;;;;;;;;;;18.37;88.87;97404.10;109724;1250;69443;-70
2022/06/05 01:00:54;;;;;;;;;;;;;;;18.43;88.61;97402.27;109826;1250;60220;-71
2022/06/05 01:03:25;;;;;;;;;;;;;;;18.47;87.89;97399.70;109904;1250;59695;-69
2022/06/05 01:05:55;;;;;;;;;;;;;;;18.50;88.94;97395.18;109915;1250;71528;-70
2022/06/05 01:08:25;;;;;;;;;;;;;;;18.52;88.03;97391.71;109982;1250;67694;-70
2022/06/05 01:11:09;;;;;;;;;;;;;;;18.53;88.37;97382.32;109868;1250;69362;-71
2022/06/05 01:13:39;;;;;;;;;;;;;;;18.55;87.36;97387.39;109971;1250;59816;-70
2022/06/05 01:16:10;;;;;;;;;;;;;;;18.56;88.98;97394.00;109932;1250;59709;-71
2022/06/05 01:18:40;;;;;;;;;;;;;;;18.56;87.97;97388.14;109806;1251;70758;-72
2022/06/05 01:21:09;;;;;;;;;;;;;;;18.56;87.60;97386.92;109844;1250;67771;-71
2022/06/05 01:23:54;;;;;;;;;;;;;;;18.57;87.31;97390.36;109840;1250;68656;-72
2022/06/05 01:26:29;;;;;;;;;;;;;;;18.55;87.77;97392.55;109734;1253;59677;-71
2022/06/05 01:29:10;;;;;;;;;;;;;;;18.52;88.51;97387.37;109671;1254;59692;-70
2022/06/05 01:31:44;;;;;;;;;;;;;;;18.50;88.23;97386.21;109905;1250;71526;-70
2022/06/05 01:34:21;;;;;;;;;;;;;;;18.47;87.77;97389.11;109854;1251;67754;-71
2022/06/05 01:37:00;;;;;;;;;;;;;;;18.45;87.20;97384.45;109929;1250;68644;-72
2022/06/05 01:39:37;;;;;;;;;;;;;;;18.41;87.79;97389.77;109830;1251;59755;-70
2022/06/05 01:42:09;;;;;;;;;;;;;;;18.38;87.38;97391.19;110230;1250;59715;-72
2022/06/05 01:44:41;;;;;;;;;;;;;;;18.36;87.42;97392.95;109892;1250;71651;-70
2022/06/05 01:47:19;;;;;;;;;;;;;;;18.32;86.89;97387.09;109851;1251;68449;-70
2022/06/05 01:50:02;;;;;;;;;;;;;;;18.28;86.83;97384.92;109929;1250;68663;-70
2022/06/05 01:52:36;;;;;;;;;;;;;;;18.24;86.80;97383.79;109897;1250;59712;-70
2022/06/05 01:55:13;;;;;;;;;;;;;;;18.18;86.69;97381.52;109872;1250;59745;-72
2022/06/05 01:57:43;;;;;;;;;;;;;;;18.13;86.22;97379.27;109905;1250;71532;-72
2022/06/05 02:00:19;;;;;;;;;;;;;;;18.09;86.31;97382.67;109765;1253;68578;-71
2022/06/05 02:03:06;;;;;;;;;;;;;;;18.04;86.46;97383.75;109914;1250;68407;-71
2022/06/05 02:05:42;;;;;;;;;;;;;;;17.99;87.17;97381.14;109947;1250;59706;-71
2022/06/05 02:08:16;;;;;;;;;;;;;;;17.96;89.04;97380.17;109885;1250;59628;-72
2022/06/05 02:10:47;;;;;;;;;;;;;;;17.95;88.51;97384.84;109905;1251;71425;-71
2022/06/05 02:13:18;;;;;;;;;;;;;;;17.95;88.66;97384.34;109933;1250;68765;-71
2022/06/05 02:15:49;;;;;;;;;;;;;;;17.98;89.61;97385.25;109910;1250;68831;-71
2022/06/05 02:18:19;;;;;;;;;;;;;;;18.01;89.61;97383.56;109900;1250;59716;-72
2022/06/05 02:20:50;;;;;;;;;;;;;;;18.02;88.58;97387.09;109757;1252;59644;-72
2022/06/05 02:23:22;;;;;;;;;;;;;;;18.02;88.69;97395.39;109900;1250;71399;-71
2022/06/05 02:25:52;;;;;;;;;;;;;;;18.01;88.79;97395.38;109936;1250;67603;-71
2022/06/05 02:28:22;;;;;;;;;;;;;;;17.98;89.49;97390.30;110230;1251;68600;-72
2022/06/05 02:31:01;;;;;;;;;;;;;;;17.97;88.85;97399.84;110165;1250;59668;-71
2022/06/05 02:33:42;;;;;;;;;;;;;;;17.96;87.94;97401.02;109790;1250;59669;-72
2022/06/05 02:36:30;;;;;;;;;;;;;;;17.93;87.43;97404.30;109949;1249;71512;-71
2022/06/05 02:39:07;;;;;;;;;;;;;;;17.89;87.65;97400.64;109872;1251;67888;-71
2022/06/05 02:42:00;;;;;;;;;;;;;;;17.86;87.05;97403.27;109975;1250;69398;-71
2022/06/05 02:44:52;;;;;;;;;;;;;;;17.84;88.38;97409.23;109879;1250;59759;-72
2022/06/05 02:47:32;;;;;;;;;;;;;;;17.83;89.27;97406.77;109965;1250;59627;-71
2022/06/05 02:50:18;;;;;;;;;;;;;;;17.80;89.01;97405.72;109853;1250;71469;-71
2022/06/05 02:52:51;;;;;;;;;;;;;;;17.78;89.67;97404.68;109862;1251;67868;-71
2022/06/05 02:55:21;;;;;;;;;;;;;;;17.78;89.15;97406.33;109919;1250;68878;-71
2022/06/05 02:57:51;;;;;;;;;;;;;;;17.78;88.19;97411.27;109927;1250;59757;-71
2022/06/05 03:00:24;;;;;;;;;;;;;;;17.78;87.90;97408.96;109962;1250;59759;-71
2022/06/05 03:05:42;;;;;;;;;;;;;;;17.80;87.96;97407.40;109924;1251;67865;-72
2022/06/05 03:08:14;;;;;;;;;;;;;;;17.81;88.61;97409.58;109874;1250;69517;-72
2022/06/05 03:10:45;;;;;;;;;;;;;;;17.82;88.21;97411.06;109917;1251;59702;-70
2022/06/05 03:13:15;;;;;;;;;;;;;;;17.82;88.50;97411.00;109896;1251;59741;-72
2022/06/05 03:15:45;;;;;;;;;;;;;;;17.82;88.39;97408.73;109772;1251;70372;-71
2022/06/05 03:18:16;;;;;;;;;;;;;;;17.84;87.50;97409.23;110464;1250;68589;-73
2022/06/05 03:20:45;;;;;;;;;;;;;;;17.87;87.23;97405.77;109875;1250;69246;-73
2022/06/05 03:23:14;;;;;;;;;;;;;;;17.89;87.02;97404.90;109813;1253;59713;-71
2022/06/05 03:25:44;;;;;;;;;;;;;;;17.93;86.70;97413.67;109876;1250;59640;-71
2022/06/05 03:28:13;;;;;;;;;;;;;;;17.96;86.43;97415.45;109907;1251;71371;-71
2022/06/05 03:30:43;;;;;;;;;;;;;;;17.99;86.54;97421.65;109912;1251;68596;-72
2022/06/05 03:33:12;;;;;;;;;;;;;;;18.03;86.38;97427.61;109731;1253;69280;-73
2022/06/05 03:35:43;;;;;;;;;;;;;;;18.06;86.10;97429.73;109914;1250;59707;-71
2022/06/05 03:38:13;;;;;;;;;;;;;;;18.09;85.93;97429.26;109711;1253;59633;-71
2022/06/05 03:40:43;;;;;;;;;;;;;;;18.12;85.36;97426.10;109721;1253;71507;-71
2022/06/05 03:43:15;;;;;;;;;;;;;;;18.17;85.12;97427.34;109731;1253;67717;-72
2022/06/05 03:45:44;;;;;;;;;;;;;;;18.23;85.30;97431.34;109699;1253;69412;-72
2022/06/05 03:48:14;;;;;;;;;;;;;;;18.28;85.03;97430.47;109787;1253;59773;-71
2022/06/05 03:50:43;;;;;;;;;;;;;;;18.35;84.73;97430.83;109784;1253;59631;-72
2022/06/05 03:53:13;;;;;;;;;;;;;;;18.42;84.53;97429.40;109779;1253;71015;-72
2022/06/05 03:55:42;;;;;;;;;;;;;;;18.51;84.17;97430.19;109714;1253;67737;-71
2022/06/05 03:58:11;;;;;;;;;;;;;;;18.61;84.01;97428.10;109690;1253;69219;-71
2022/06/05 04:00:41;;;;;;;;;;;;;;;18.72;83.76;97425.87;109769;1251;59717;-72
2022/06/05 04:03:10;;;;;;;;;;;;;;;18.82;83.62;97422.48;109793;1253;59722;-72
2022/06/05 04:05:39;;;;;;;;;;;;;;;18.88;82.55;97424.48;110299;1251;70750;-73
2022/06/05 04:08:08;;;;;;;;;;;;;;;18.98;82.33;97426.27;109967;1253;67651;-73
2022/06/05 04:10:37;;;;;;;;;;;;;;;19.11;81.64;97427.84;109732;1251;68780;-72
2022/06/05 04:13:06;;;;;;;;;;;;;;;19.28;81.69;97436.30;109732;1251;60072;-74
2022/06/05 04:15:39;;;;;;;;;;;;;;;19.43;80.93;97438.21;109716;1251;59713;-75
2022/06/05 04:18:08;;;;;;;;;;;;;;;19.62;80.70;97434.38;109813;1251;71250;-75
2022/06/05 04:20:38;;;;;;;;;;;;;;;19.78;79.02;97425.02;109801;1251;68498;-73
2022/06/05 04:23:10;;;;;;;;;;;;;;;19.86;78.38;97422.23;109717;1253;69274;-72
2022/06/05 04:25:43;;;;;;;;;;;;;;;19.92;77.50;97420.84;109697;1254;59704;-75
2022/06/05 04:28:11;;;;;;;;;;;;;;;20.00;77.72;97428.70;109662;1251;60201;-74
2022/06/05 04:30:40;;;;;;;;;;;;;;;20.11;77.13;97433.45;109750;1253;70917;-75
2022/06/05 04:33:10;;;;;;;;;;;;;;;20.24;76.45;97434.07;109705;1251;67854;-73
2022/06/05 04:35:39;;;;;;;;;;;;;;;20.33;74.13;97438.23;109729;1253;69661;-74
2022/06/05 04:38:08;;;;;;;;;;;;;;;20.46;74.06;97433.42;109867;1251;59693;-73
2022/06/05 04:40:39;;;;;;;;;;;;;;;20.63;74.15;97437.09;109842;1251;59676;-75
2022/06/05 04:43:08;;;;;;;;;;;;;;;20.83;73.14;97429.13;109878;1251;71559;-75
2022/06/05 04:45:37;;;;;;;;;;;;;;;21.04;71.87;97429.95;109932;1251;67653;-75
2022/06/05 04:48:06;;;;;;;;;;;;;;;21.22;71.75;97432.11;109882;1250;68684;-76
2022/06/05 04:50:35;;;;;;;;;;;;;;;21.41;70.62;97426.05;109747;1251;59767;-75
2022/06/05 04:53:04;;;;;;;;;;;;;;;21.54;69.95;97423.94;110500;1250;59615;-75
2022/06/05 04:55:36;;;;;;;;;;;;;;;21.46;68.16;97426.37;109717;1254;71458;-69
2022/06/05 04:58:05;;;;;;;;;;;;;;;21.42;69.10;97430.54;109881;1251;67813;-70
2022/06/05 05:00:33;;;;;;;;;;;;;;;21.37;69.05;97430.37;109883;1251;69596;-71
2022/06/05 05:03:02;;;;;;;;;;;;;;;20.91;68.13;97439.73;109672;1253;59772;-69
2022/06/05 05:05:33;;;;;;;;;;;;;;;20.77;68.92;97440.98;109775;1253;59679;-70
2022/06/05 05:08:02;;;;;;;;;;;;;;;20.49;69.35;97446.52;109887;1250;71558;-71
2022/06/05 05:10:32;;;;;;;;;;;;;;;20.42;70.12;97451.16;109929;1251;67815;-68
2022/06/05 05:13:01;;;;;;;;;;;;;;;20.25;70.10;97445.09;109685;1251;69571;-68
2022/06/05 05:15:30;;;;;;;;;;;;;;;20.15;70.32;97439.34;109651;1254;59763;-70
2022/06/05 05:17:58;;;;;;;;;;;;;;;20.18;70.81;97436.35;109850;1251;59762;-69
2022/06/05 05:20:27;;;;;;;;;;;;;;;20.37;70.59;97430.27;109902;1248;71591;-68
2022/06/05 05:22:56;;;;;;;;;;;;;;;20.50;69.19;97424.49;109805;1253;68633;-69
2022/06/05 05:25:25;;;;;;;;;;;;;;;20.75;68.85;97424.10;109900;1250;67661;-69
2022/06/05 05:27:54;;;;;;;;;;;;;;;21.05;68.33;97419.22;109714;1251;59729;-70
2022/06/05 05:30:23;;;;;;;;;;;;;;;21.26;67.14;97416.88;109809;1250;59757;-70
2022/06/05 05:32:52;;;;;;;;;;;;;;;21.16;66.75;97415.74;109646;1254;70845;-70
2022/06/05 05:35:22;;;;;;;;;;;;;;;21.33;67.22;97414.20;109829;1251;68605;-71
2022/06/05 05:37:50;;;;;;;;;;;;;;;21.35;65.62;97420.71;110205;1251;69546;-72
2022/06/05 05:43:06;;;;;;;;;;;;;;;21.46;64.63;97425.97;109854;1251;59637;-72
2022/06/05 05:45:35;;;;;;;;;;;;;;;21.23;64.32;97422.73;109709;1253;70800;-70
2022/06/05 05:48:04;;;;;;;;;;;;;;;21.38;65.20;97423.71;109866;1251;68635;-71
2022/06/05 05:50:33;;;;;;;;;;;;;;;21.55;65.49;97428.94;109877;1251;69556;-71
2022/06/05 05:53:02;;;;;;;;;;;;;;;21.79;64.87;97435.41;109878;1251;59692;-71
2022/06/05 05:55:31;;;;;;;;;;;;;;;21.98;63.98;97433.44;109908;1251;59765;-71
2022/06/05 05:58:00;;;;;;;;;;;;;;;22.11;63.16;97431.88;109791;1251;71710;-73
2022/06/05 06:00:28;;;;;;;;;;;;;;;22.11;60.73;97428.23;109796;1251;68044;-72
2022/06/05 06:02:58;;;;;;;;;;;;;;;22.09;61.31;97425.13;109689;1252;69463;-72
2022/06/05 06:05:34;;;;;;;;;;;;;;;22.39;61.91;97428.77;109678;1253;59823;-71
2022/06/05 06:08:03;;;;;;;;;;;;;;;22.64;60.45;97431.21;109895;1251;59750;-68
2022/06/05 06:10:32;;;;;;;;;;;;;;;22.72;59.72;97432.67;109720;1251;71576;-72
2022/06/05 06:13:01;;;;;;;;;;;;;;;22.73;59.19;97441.23;109864;1250;67885;-72
2022/06/05 06:15:29;;;;;;;;;;;;;;;22.88;59.57;97442.14;109933;1251;69597;-72
2022/06/05 06:17:58;;;;;;;;;;;;;;;23.16;59.65;97431.80;109901;1251;59697;-69
2022/06/05 06:20:28;;;;;;;;;;;;;;;23.49;58.04;97425.33;109971;1251;59695;-71
2022/06/05 06:22:56;;;;;;;;;;;;;;;23.82;57.37;97430.44;109937;1251;70939;-73
2022/06/05 06:25:25;;;;;;;;;;;;;;;24.18;56.83;97431.90;110479;1251;68586;-73
2022/06/05 06:27:54;;;;;;;;;;;;;;;24.43;56.35;97432.80;109231;1251;914547;-73
2022/06/05 06:30:23;;;;;;;;;;;;;;;24.68;55.14;97435.91;109815;1251;59687;-72
2022/06/05 06:32:52;;;;;;;;;;;;;;;24.90;54.56;97445.27;109922;1251;59772;-72
2022/06/05 06:35:20;;;;;;;;;;;;;;;25.19;53.77;97442.77;109936;1251;71073;-72
2022/06/05 06:37:50;;;;;;;;;;;;;;;25.38;52.79;97442.17;109754;1251;68738;-73
2022/06/05 06:40:19;;;;;;;;;;;;;;;25.36;52.92;97447.77;109817;1250;67926;-74
2022/06/05 06:42:48;;;;;;;;;;;;;;;25.48;52.98;97450.74;109860;1251;59759;-71
2022/06/05 06:45:19;;;;;;;;;;;;;;;25.26;52.26;97448.19;109894;1251;59672;-73
2022/06/05 06:47:49;;;;;;;;;;;;;;;25.61;50.98;97451.38;109832;1250;70608;-71
2022/06/05 06:50:18;;;;;;;;;;;;;;;25.73;50.58;97446.48;109768;1250;67878;-72
2022/06/05 06:52:46;;;;;;;;;;;;;;;25.63;49.92;97446.32;109917;1250;67949;-74
2022/06/05 06:55:16;;;;;;;;;;;;;;;25.72;51.56;97453.89;109947;1251;59754;-73
2022/06/05 06:57:45;;;;;;;;;;;;;;;25.54;50.99;97455.93;109991;1250;59757;-71
2022/06/05 07:00:16;;;;;;;;;;;;;;;24.62;52.57;97465.02;109907;1250;70604;-71
2022/06/05 07:02:45;;;;;;;;;;;;;;;24.59;53.07;97464.48;109744;1251;67736;-72
2022/06/05 07:05:14;;;;;;;;;;;;;;;24.68;52.38;97463.98;109845;1251;68929;-69
2022/06/05 07:07:43;;;;;;;;;;;;;;;25.06;52.68;97466.71;109910;1251;59762;-69
2022/06/05 07:10:12;;;;;;;;;;;;;;;25.48;51.53;97464.54;109680;1253;60171;-71
2022/06/05 07:12:41;;;;;;;;;;;;;;;25.86;50.92;97462.67;110581;1251;71113;-69
2022/06/05 07:15:10;;;;;;;;;;;;;;;26.06;50.53;97466.90;109871;1250;67925;-69
2022/06/05 07:17:39;;;;;;;;;;;;;;;26.07;50.19;97469.13;109879;1251;68866;-71
2022/06/05 07:20:08;;;;;;;;;;;;;;;26.19;49.97;97464.45;109878;1250;59781;-70
2022/06/05 07:22:37;;;;;;;;;;;;;;;26.42;49.25;97462.46;109774;1251;59793;-70
2022/06/05 07:25:06;;;;;;;;;;;;;;;26.50;48.55;97460.59;109722;1251;71002;-69
2022/06/05 07:27:35;;;;;;;;;;;;;;;26.74;47.01;97461.25;109824;1251;68823;-70
2022/06/05 07:30:04;;;;;;;;;;;;;;;26.91;46.45;97458.48;109909;1251;68838;-70
2022/06/05 07:32:33;;;;;;;;;;;;;;;27.30;45.70;97449.13;109915;1251;59751;-71
2022/06/05 07:35:02;;;;;;;;;;;;;;;27.26;46.11;97447.52;109700;1251;60180;-72
2022/06/05 07:37:32;;;;;;;;;;;;;;;27.27;45.28;97445.52;109893;1251;71554;-72
2022/06/05 07:40:17;;;;;;;;;;;;;;;27.26;45.21;97443.58;109862;1251;68108;-66
2022/06/05 07:42:45;;;;;;;;;;;;;;;27.34;44.93;97431.17;109848;1250;69225;-68
2022/06/05 07:45:15;;;;;;;;;;;;;;;27.55;44.24;97429.35;109859;1251;59789;-71
2022/06/05 07:47:47;;;;;;;;;;;;;;;27.97;44.46;97426.09;109871;1250;59690;-69
2022/06/05 07:50:16;;;;;;;;;;;;;;;28.37;43.23;97422.83;109792;1251;71634;-71
2022/06/05 07:55:31;;;;;;;;;;;;;;;28.93;42.10;97429.39;109863;1251;68669;-68
2022/06/05 07:58:00;;;;;;;;;;;;;;;28.96;40.90;97432.40;109906;1250;59787;-69
2022/06/05 08:00:29;;;;;;;;;;;;;;;29.19;41.22;97428.20;109978;1251;59769;-69
2022/06/05 08:02:58;;;;;;;;;;;;;;;29.72;41.05;97422.48;109867;1251;70207;-69
2022/06/05 08:05:27;;;;;;;;;;;;;;;29.97;40.39;97422.57;109863;1251;68597;-68
2022/06/05 08:07:56;;;;;;;;;;;;;;;30.29;40.88;97426.80;109889;1251;69419;-70
2022/06/05 08:10:25;;;;;;;;;;;;;;;30.01;39.77;97420.02;109891;1251;59741;-70
2022/06/05 08:12:55;;;;;;;;;;;;;;;29.83;39.94;97418.46;109892;1250;59676;-71
2022/06/05 08:15:25;;;;;;;;;;;;;;;29.38;40.17;97419.27;109670;1251;71635;-72
2022/06/05 08:17:53;;;;;;;;;;;;;;;28.91;41.61;97419.02;109875;1251;67850;-69
2022/06/05 08:20:22;;;;;;;;;;;;;;;28.73;42.35;97421.50;109903;1250;68663;-69
2022/06/05 08:22:51;;;;;;;;;;;;;;;27.78;42.38;97418.13;109791;1251;59769;-68
2022/06/05 08:25:22;;;;;;;;;;;;;;;27.39;43.66;97418.34;109770;1251;59740;-73
2022/06/05 08:27:51;;;;;;;;;;;;;;;27.53;44.70;97416.83;109790;1253;72169;-68
2022/06/05 08:30:20;;;;;;;;;;;;;;;27.69;43.71;97416.65;109799;1251;68070;-69
2022/06/05 08:32:52;;;;;;;;;;;;;;;27.80;43.78;97419.46;109848;1251;68777;-74
2022/06/05 08:35:21;;;;;;;;;;;;;;;28.26;42.25;97422.55;109732;1251;59732;-70
2022/06/05 08:43:40;;;;;;;;;;;;;;;28.38;42.41;97422.40;109796;1252;67881;-73
2022/06/05 08:46:16;;;;;;;;;;;;;;;28.35;41.95;97421.52;109756;1254;69712;-73
2022/06/05 08:48:49;;;;;;;;;;;;;;;28.43;42.42;97417.52;109925;1251;59824;-70
2022/06/05 08:51:30;;;;;;;;;;;;;;;28.70;42.13;97419.66;109715;1253;59760;-71
2022/06/05 08:54:04;;;;;;;;;;;;;;;29.24;41.27;97422.78;109857;1251;70578;-74
2022/06/05 08:56:33;;;;;;;;;;;;;;;29.61;40.96;97425.13;109844;1251;68299;-73
2022/06/05 08:59:07;;;;;;;;;;;;;;;29.83;40.27;97424.79;109905;1251;69445;-72
2022/06/05 09:01:45;;;;;;;;;;;;;;;29.97;40.00;97430.39;109709;1251;59773;-75
2022/06/05 09:04:32;;;;;;;;;;;;;;;29.84;39.43;97430.36;109727;1253;59726;-72
2022/06/05 09:07:04;;;;;;;;;;;;;;;29.73;39.63;97430.86;109807;1251;71575;-72
2022/06/05 09:09:41;;;;;;;;;;;;;;;29.41;39.86;97428.95;109735;1251;68715;-69
2022/06/05 09:12:14;;;;;;;;;;;;;;;29.38;40.97;97426.96;109804;1251;70243;-71
2022/06/05 09:14:48;;;;;;;;;;;;;;;29.44;41.03;97427.15;109737;1253;60030;-74
2022/06/05 09:17:17;;;;;;;;;;;;;;;29.18;40.91;97430.38;109832;1250;59705;-69
2022/06/05 09:19:49;;;;;;;;;;;;;;;28.83;41.51;97428.27;109797;1251;71077;-68
2022/06/05 09:22:57;;;;;;;;;;;;;;;28.62;41.34;97425.39;109822;1251;67941;-68
2022/06/05 09:25:26;;;;;;;;;;;;;;;28.60;42.16;97423.50;109256;1257;69488;-72
2022/06/05 09:27:55;;;;;;;;;;;;;;;28.78;41.90;97419.02;109255;1258;59758;-73
2022/06/05 09:30:36;;;;;;;;;;;;;;;28.96;41.55;97417.39;109293;1257;59718;-69
2022/06/05 09:33:09;;;;;;;;;;;;;;;29.05;40.79;97414.91;109121;1257;70828;-69
2022/06/05 09:35:41;;;;;;;;;;;;;;;28.98;41.09;97414.19;109116;1259;68268;-71
2022/06/05 09:38:12;;;;;;;;;;;;;;;29.08;41.10;97417.69;109278;1259;69519;-71
2022/06/05 09:40:53;;;;;;;;;;;;;;;29.35;40.56;97418.70;109275;1258;59815;-69
2022/06/05 09:43:34;;;;;;;;;;;;;;;29.83;40.28;97416.92;109331;1257;59770;-69
2022/06/05 09:46:22;;;;;;;;;;;;;;;30.17;39.31;97420.71;109244;1259;72058;-72
2022/06/05 09:48:57;;;;;;;;;;;;;;;29.93;38.79;97417.29;109283;1257;67938;-72
2022/06/05 09:51:25;;;;;;;;;;;;;;;30.35;38.71;97418.89;109275;1257;69522;-73
2022/06/05 09:53:54;;;;;;;;;;;;;;;30.76;38.37;97420.92;109209;1257;59759;-68
2022/06/05 09:58:24;;;;;;;;;;;;;;;30.81;38.01;97419.38;109305;1257;59745;-72
2022/06/05 09:59:29;;;;;;;;;;;;;;;30.90;37.75;97424.13;109390;1251;70799;-71
2022/06/05 10:02:00;;;;;;;;;;;;;;;30.01;39.14;97426.98;109742;1251;67817;-70
2022/06/05 10:04:31;;;;;;;;;;;;;;;30.05;38.88;97418.98;109687;1251;68461;-69
2022/06/05 10:07:22;;;;;;;;;;;;;;;29.70;39.52;97413.42;109700;1251;59748;-73
2022/06/05 10:09:51;;;;;;;;;;;;;;;29.86;39.96;97413.06;109699;1253;59755;-72
2022/06/05 10:12:22;;;;;;;;;;;;;;;29.86;39.95;97410.08;109723;1251;71043;-71
2022/06/05 10:14:56;;;;;;;;;;;;;;;29.60;41.47;97406.83;109719;1251;67935;-71
2022/06/05 10:17:36;;;;;;;;;;;;;;;29.68;40.22;97405.58;109711;1251;69439;-69
2022/06/05 10:20:04;;;;;;;;;;;;;;;29.93;39.53;97398.27;109881;1251;59816;-72
2022/06/05 10:22:33;;;;;;;;;;;;;;;29.83;39.14;97398.52;110198;1251;59640;-69
2022/06/05 10:25:12;;;;;;;;;;;;;;;29.44;39.67;97393.28;109740;1251;70889;-69
2022/06/05 10:27:51;;;;;;;;;;;;;;;29.64;38.71;97387.05;109707;1251;68225;-69
2022/06/05 10:30:23;;;;;;;;;;;;;;;29.90;38.52;97384.85;109728;1251;68706;-74
2022/06/05 10:33:00;;;;;;;;;;;;;;;29.95;37.58;97382.21;109786;1251;59742;-71
2022/06/05 10:35:49;;;;;;;;;;;;;;;29.90;36.95;97376.64;109736;1251;59749;-68
2022/06/05 10:38:27;;;;;;;;;;;;;;;29.78;38.29;97373.16;109833;1251;70774;-72
2022/06/05 10:41:01;;;;;;;;;;;;;;;29.72;38.68;97372.70;109840;1250;67807;-68
2022/06/05 10:43:31;;;;;;;;;;;;;;;29.89;38.50;97373.24;109721;1251;68565;-68
2022/06/05 10:46:02;;;;;;;;;;;;;;;29.77;38.67;97367.27;109870;1250;59759;-70
2022/06/05 10:49:06;;;;;;;;;;;;;;;29.81;39.01;97371.49;109864;1250;59702;-67
2022/06/05 10:51:37;;;;;;;;;;;;;;;29.91;38.46;97376.25;109349;1256;71550;-69
2022/06/05 10:54:21;;;;;;;;;;;;;;;29.66;39.90;97370.06;109334;1256;68128;-70
2022/06/05 10:56:58;;;;;;;;;;;;;;;29.51;40.13;97370.14;109369;1256;69497;-69
2022/06/05 10:59:29;;;;;;;;;;;;;;;29.14;40.42;97368.25;109307;1257;59772;-68
2022/06/05 11:02:16;;;;;;;;;;;;;;;28.89;39.66;97367.35;109343;1256;59742;-68
2022/06/05 11:04:59;;;;;;;;;;;;;;;28.39;40.96;97371.20;109325;1257;71621;-69
2022/06/05 11:07:40;;;;;;;;;;;;;;;28.67;40.81;97365.38;109760;1256;66857;-69
2022/06/05 11:13:39;;;;;;;;;;;;;;;28.85;40.57;97352.53;109304;1256;68653;-68
2022/06/05 11:13:51;;;;;;;;;;;;;;;28.67;41.57;97344.61;109373;1256;59834;-69
2022/06/05 11:17:03;;;;;;;;;;;;;;;29.15;40.20;97342.71;108630;1262;59815;-71
2022/06/05 11:19:44;;;;;;;;;;;;;;;29.13;38.53;97335.23;108646;1262;71923;-71
2022/06/05 11:22:14;;;;;;;;;;;;;;;29.21;39.33;97332.77;108729;1262;68609;-68
2022/06/05 11:24:47;;;;;;;;;;;;;;;29.58;38.87;97329.80;108706;1262;70009;-67
2022/06/05 11:27:27;;;;;;;;;;;;;;;29.85;37.40;97327.57;109265;1257;59710;-69
2022/06/05 11:30:18;;;;;;;;;;;;;;;30.08;38.39;97325.41;109273;1257;60106;-70
2022/06/05 11:32:52;;;;;;;;;;;;;;;30.29;38.07;97329.50;109279;1257;71605;-71
2022/06/05 11:35:23;;;;;;;;;;;;;;;30.34;36.98;97327.28;109223;1258;68730;-70
2022/06/05 11:38:16;;;;;;;;;;;;;;;30.07;36.98;97325.56;109337;1257;68686;-70
2022/06/05 11:40:48;;;;;;;;;;;;;;;30.15;36.35;97317.11;109129;1257;59873;-68
2022/06/05 11:43:29;;;;;;;;;;;;;;;30.23;37.26;97321.42;109312;1259;59782;-71
2022/06/05 11:46:21;;;;;;;;;;;;;;;30.29;37.19;97311.37;109282;1257;71601;-69
2022/06/05 11:48:55;;;;;;;;;;;;;;;30.31;37.27;97307.14;109298;1257;67857;-72
2022/06/05 11:51:33;;;;;;;;;;;;;;;30.45;36.85;97312.77;109873;1251;68966;-70
2022/06/05 11:54:07;;;;;;;;;;;;;;;30.26;35.71;97314.64;109848;1251;59738;-69
2022/06/05 11:56:58;;;;;;;;;;;;;;;30.37;36.98;97312.98;109810;1250;59760;-69
2022/06/05 11:59:39;;;;;;;;;;;;;;;30.58;36.12;97303.78;109909;1249;70910;-71
2022/06/05 12:02:08;;;;;;;;;;;;;;;30.56;36.80;97305.90;109902;1250;68697;-71
2022/06/05 12:04:49;;;;;;;;;;;;;;;30.46;36.28;97309.76;109719;1253;69438;-69
2022/06/05 12:07:18;;;;;;;;;;;;;;;30.33;35.61;97310.96;109688;1251;59763;-70
2022/06/05 12:09:49;;;;;;;;;;;;;;;30.34;35.27;97311.42;109818;1250;59640;-69
2022/06/05 12:12:20;;;;;;;;;;;;;;;30.46;35.14;97311.06;109665;1253;71562;-72
2022/06/05 12:15:09;;;;;;;;;;;;;;;30.37;35.52;97304.03;109699;1250;67853;-69
2022/06/05 12:17:42;;;;;;;;;;;;;;;30.44;35.33;97310.27;109812;1250;68892;-67
2022/06/05 12:20:10;;;;;;;;;;;;;;;30.34;35.62;97304.40;109955;1250;59783;-69
2022/06/05 12:22:45;;;;;;;;;;;;;;;30.29;34.75;97302.91;109844;1250;59765;-71
2022/06/05 12:25:28;;;;;;;;;;;;;;;29.43;35.05;97298.45;109820;1250;70807;-71
2022/06/05 12:27:59;;;;;;;;;;;;;;;29.38;36.02;97301.34;109790;1251;68754;-71
2022/06/05 12:30:34;;;;;;;;;;;;;;;29.57;37.12;97304.20;109840;1250;69441;-70
2022/06/05 12:33:30;;;;;;;;;;;;;;;29.78;37.24;97299.02;109986;1250;59664;-72
2022/06/05 12:36:11;;;;;;;;;;;;;;;30.14;36.57;97302.95;110464;1250;58838;-68
2022/06/05 12:38:44;;;;;;;;;;;;;;;30.10;34.65;97299.30;109898;1250;71604;-72
2022/06/05 12:41:31;;;;;;;;;;;;;;;30.15;35.04;97297.80;109723;1251;68541;-72
2022/06/05 12:44:16;;;;;;;;;;;;;;;29.84;35.89;97301.26;109844;1250;70113;-72
2022/06/05 12:46:54;;;;;;;;;;;;;;;29.06;35.86;97296.86;109600;1253;59771;-71
2022/06/05 12:49:28;;;;;;;;;;;;;;;28.84;36.69;97287.80;109850;1250;59699;-71
2022/06/05 12:52:12;;;;;;;;;;;;;;;28.70;37.11;97284.63;109873;1250;70546;-71
2022/06/05 12:54:53;;;;;;;;;;;;;;;29.03;37.53;97283.17;109826;1250;68591;-73
2022/06/05 12:57:39;;;;;;;;;;;;;;;29.16;36.02;97286.27;109803;1250;69578;-72
2022/06/05 13:00:32;;;;;;;;;;;;;;;29.28;36.53;97283.08;110007;1250;59739;-72
2022/06/05 13:03:01;;;;;;;;;;;;;;;29.40;36.64;97283.87;109884;1250;59669;-73
2022/06/05 13:05:42;;;;;;;;;;;;;;;29.27;36.22;97278.67;109937;1250;70165;-71
2022/06/05 13:08:21;;;;;;;;;;;;;;;29.38;36.29;97274.47;109803;1250;68385;-72
2022/06/05 13:11:08;;;;;;;;;;;;;;;29.10;36.28;97268.53;109817;1250;68655;-71
2022/06/05 13:13:51;;;;;;;;;;;;;;;28.91;37.25;97261.61;109957;1250;59711;-73
2022/06/05 13:16:32;;;;;;;;;;;;;;;28.99;38.13;97258.95;109916;1250;59698;-73
2022/06/05 13:19:07;;;;;;;;;;;;;;;29.19;38.02;97258.41;109950;1250;71591;-71
2022/06/05 13:21:53;;;;;;;;;;;;;;;29.32;37.32;97256.96;110155;1249;67870;-69
2022/06/05 13:24:39;;;;;;;;;;;;;;;29.40;37.03;97253.80;109828;1250;69408;-70